sensor_id;sensor_type;location;lat;lon;timestamp;P1;durP1;ratioP1;P2;durP2;ratioP2
41964;SDS011;50120;53.250;8.702;2022-10-16T00:00:38;5.38;;;3.08;;
41964;SDS011;50120;53.250;8.702;2022-10-16T00:03:05;5.70;;;2.80;;
41964;SDS011;50120;53.250;8.702;2022-10-16T00:05:32;5.60;;;2.80;;
41964;SDS011;50120;53.250;8.702;2022-10-16T00:07:58;6.82;;;2.70;;
41964;SDS011;50120;53.250;8.702;2022-10-16T00:10:24;8.57;;;2.40;;
41964;SDS011;50120;53.250;8.702;2022-10-16T00:12:50;5.93;;;2.45;;
41964;SDS011;50120;53.250;8.702;2022-10-16T00:15:16;4.78;;;2.10;;
41964;SDS011;50120;53.250;8.702;2022-10-16T00:17:41;4.40;;;2.38;;
41964;SDS011;50120;53.250;8.702;2022-10-16T00:20:07;5.10;;;2.03;;
41964;SDS011;50120;53.250;8.702;2022-10-16T00:22:33;4.95;;;2.28;;
41964;SDS011;50120;53.250;8.702;2022-10-16T00:24:59;3.67;;;2.08;;
41964;SDS011;50120;53.250;8.702;2022-10-16T00:27:24;4.05;;;2.25;;
41964;SDS011;50120;53.250;8.702;2022-10-16T00:29:50;6.03;;;2.67;;
41964;SDS011;50120;53.250;8.702;2022-10-16T00:32:17;7.05;;;2.40;;
41964;SDS011;50120;53.250;8.702;2022-10-16T00:34:43;5.72;;;2.28;;
41964;SDS011;50120;53.250;8.702;2022-10-16T00:37:09;5.78;;;2.28;;
41964;SDS011;50120;53.250;8.702;2022-10-16T00:39:35;3.50;;;2.08;;
41964;SDS011;50120;53.250;8.702;2022-10-16T00:42:00;5.93;;;2.05;;
41964;SDS011;50120;53.250;8.702;2022-10-16T00:47:22;7.93;;;2.08;;
41964;SDS011;50120;53.250;8.702;2022-10-16T00:50:08;4.80;;;1.92;;
41964;SDS011;50120;53.250;8.702;2022-10-16T00:52:39;7.38;;;2.17;;
41964;SDS011;50120;53.250;8.702;2022-10-16T00:55:08;3.55;;;2.20;;
41964;SDS011;50120;53.250;8.702;2022-10-16T00:57:34;7.57;;;2.30;;
41964;SDS011;50120;53.250;8.702;2022-10-16T01:00:00;7.57;;;2.00;;
41964;SDS011;50120;53.250;8.702;2022-10-16T01:02:31;4.20;;;1.92;;
41964;SDS011;50120;53.250;8.702;2022-10-16T01:04:57;5.90;;;2.30;;
41964;SDS011;50120;53.250;8.702;2022-10-16T01:07:36;7.88;;;2.13;;
41964;SDS011;50120;53.250;8.702;2022-10-16T01:13:01;6.72;;;2.03;;
41964;SDS011;50120;53.250;8.702;2022-10-16T01:15:31;3.90;;;1.83;;
41964;SDS011;50120;53.250;8.702;2022-10-16T01:18:04;5.00;;;1.67;;
41964;SDS011;50120;53.250;8.702;2022-10-16T01:20:58;3.67;;;1.90;;
41964;SDS011;50120;53.250;8.702;2022-10-16T01:23:34;4.13;;;1.92;;
41964;SDS011;50120;53.250;8.702;2022-10-16T01:28:50;7.78;;;1.75;;
41964;SDS011;50120;53.250;8.702;2022-10-16T01:31:24;5.38;;;1.88;;
41964;SDS011;50120;53.250;8.702;2022-10-16T01:34:14;4.43;;;1.98;;
41964;SDS011;50120;53.250;8.702;2022-10-16T01:37:05;6.50;;;1.70;;
41964;SDS011;50120;53.250;8.702;2022-10-16T01:39:37;5.15;;;1.70;;
41964;SDS011;50120;53.250;8.702;2022-10-16T01:42:13;2.88;;;1.67;;
41964;SDS011;50120;53.250;8.702;2022-10-16T01:44:49;3.88;;;1.60;;
41964;SDS011;50120;53.250;8.702;2022-10-16T01:47:18;5.43;;;1.80;;
41964;SDS011;50120;53.250;8.702;2022-10-16T01:49:47;3.92;;;1.73;;
41964;SDS011;50120;53.250;8.702;2022-10-16T01:52:17;7.05;;;2.15;;
41964;SDS011;50120;53.250;8.702;2022-10-16T01:54:48;7.25;;;1.80;;
41964;SDS011;50120;53.250;8.702;2022-10-16T01:57:17;4.88;;;1.83;;
41964;SDS011;50120;53.250;8.702;2022-10-16T01:59:46;4.13;;;1.73;;
41964;SDS011;50120;53.250;8.702;2022-10-16T02:02:15;3.50;;;1.55;;
41964;SDS011;50120;53.250;8.702;2022-10-16T02:04:46;6.65;;;1.80;;
41964;SDS011;50120;53.250;8.702;2022-10-16T02:07:18;4.85;;;1.95;;
41964;SDS011;50120;53.250;8.702;2022-10-16T02:09:44;5.70;;;1.90;;
41964;SDS011;50120;53.250;8.702;2022-10-16T02:12:13;5.43;;;1.80;;
41964;SDS011;50120;53.250;8.702;2022-10-16T02:14:47;5.68;;;1.70;;
41964;SDS011;50120;53.250;8.702;2022-10-16T02:17:14;8.43;;;2.10;;
41964;SDS011;50120;53.250;8.702;2022-10-16T02:19:41;5.55;;;2.20;;
41964;SDS011;50120;53.250;8.702;2022-10-16T02:22:09;5.78;;;2.00;;
41964;SDS011;50120;53.250;8.702;2022-10-16T02:24:52;4.22;;;1.80;;
41964;SDS011;50120;53.250;8.702;2022-10-16T02:30:28;6.28;;;2.22;;
41964;SDS011;50120;53.250;8.702;2022-10-16T02:33:00;7.10;;;2.25;;
41964;SDS011;50120;53.250;8.702;2022-10-16T02:35:27;5.15;;;2.03;;
41964;SDS011;50120;53.250;8.702;2022-10-16T02:37:54;5.60;;;2.40;;
41964;SDS011;50120;53.250;8.702;2022-10-16T02:40:22;3.55;;;1.75;;
41964;SDS011;50120;53.250;8.702;2022-10-16T02:42:52;3.75;;;1.95;;
41964;SDS011;50120;53.250;8.702;2022-10-16T02:45:19;3.20;;;1.92;;
41964;SDS011;50120;53.250;8.702;2022-10-16T02:47:45;6.38;;;1.80;;
41964;SDS011;50120;53.250;8.702;2022-10-16T02:50:11;5.13;;;2.22;;
41964;SDS011;50120;53.250;8.702;2022-10-16T02:52:36;4.53;;;1.90;;
41964;SDS011;50120;53.250;8.702;2022-10-16T02:55:02;8.55;;;2.20;;
41964;SDS011;50120;53.250;8.702;2022-10-16T02:57:28;4.53;;;2.00;;
41964;SDS011;50120;53.250;8.702;2022-10-16T02:59:54;3.75;;;1.52;;
41964;SDS011;50120;53.250;8.702;2022-10-16T03:02:19;5.03;;;1.63;;
41964;SDS011;50120;53.250;8.702;2022-10-16T03:04:45;4.35;;;1.88;;
41964;SDS011;50120;53.250;8.702;2022-10-16T03:07:11;5.63;;;1.60;;
41964;SDS011;50120;53.250;8.702;2022-10-16T03:09:37;4.75;;;1.52;;
41964;SDS011;50120;53.250;8.702;2022-10-16T03:12:02;5.00;;;1.77;;
41964;SDS011;50120;53.250;8.702;2022-10-16T03:14:28;5.38;;;1.70;;
41964;SDS011;50120;53.250;8.702;2022-10-16T03:16:54;6.40;;;1.52;;
41964;SDS011;50120;53.250;8.702;2022-10-16T03:19:20;4.28;;;1.80;;
41964;SDS011;50120;53.250;8.702;2022-10-16T03:21:45;3.22;;;1.58;;
41964;SDS011;50120;53.250;8.702;2022-10-16T03:24:11;4.93;;;1.55;;
41964;SDS011;50120;53.250;8.702;2022-10-16T03:26:37;3.47;;;1.67;;
41964;SDS011;50120;53.250;8.702;2022-10-16T03:29:03;4.93;;;1.58;;
41964;SDS011;50120;53.250;8.702;2022-10-16T03:31:29;4.43;;;1.77;;
41964;SDS011;50120;53.250;8.702;2022-10-16T03:33:55;3.80;;;1.92;;
41964;SDS011;50120;53.250;8.702;2022-10-16T03:36:21;5.30;;;2.00;;
41964;SDS011;50120;53.250;8.702;2022-10-16T03:38:47;4.57;;;2.10;;
41964;SDS011;50120;53.250;8.702;2022-10-16T03:41:13;6.50;;;1.98;;
41964;SDS011;50120;53.250;8.702;2022-10-16T03:43:38;7.70;;;1.80;;
41964;SDS011;50120;53.250;8.702;2022-10-16T03:46:04;6.70;;;1.70;;
41964;SDS011;50120;53.250;8.702;2022-10-16T03:48:30;4.05;;;1.83;;
41964;SDS011;50120;53.250;8.702;2022-10-16T03:50:57;5.20;;;1.77;;
41964;SDS011;50120;53.250;8.702;2022-10-16T03:53:23;5.60;;;1.73;;
41964;SDS011;50120;53.250;8.702;2022-10-16T03:55:49;3.95;;;1.73;;
41964;SDS011;50120;53.250;8.702;2022-10-16T03:58:15;5.45;;;1.92;;
41964;SDS011;50120;53.250;8.702;2022-10-16T04:00:41;7.68;;;2.25;;
41964;SDS011;50120;53.250;8.702;2022-10-16T04:03:07;4.85;;;2.10;;
41964;SDS011;50120;53.250;8.702;2022-10-16T04:05:33;6.97;;;2.50;;
41964;SDS011;50120;53.250;8.702;2022-10-16T04:07:59;8.75;;;2.88;;
41964;SDS011;50120;53.250;8.702;2022-10-16T04:10:25;8.13;;;2.53;;
41964;SDS011;50120;53.250;8.702;2022-10-16T04:12:50;5.95;;;2.60;;
41964;SDS011;50120;53.250;8.702;2022-10-16T04:15:16;5.97;;;2.50;;
41964;SDS011;50120;53.250;8.702;2022-10-16T04:17:42;7.22;;;3.08;;
41964;SDS011;50120;53.250;8.702;2022-10-16T04:20:08;9.48;;;2.85;;
41964;SDS011;50120;53.250;8.702;2022-10-16T04:22:34;6.93;;;2.90;;
41964;SDS011;50120;53.250;8.702;2022-10-16T04:24:59;12.85;;;3.40;;
41964;SDS011;50120;53.250;8.702;2022-10-16T04:27:25;7.93;;;3.60;;
41964;SDS011;50120;53.250;8.702;2022-10-16T04:29:51;9.32;;;3.60;;
41964;SDS011;50120;53.250;8.702;2022-10-16T04:32:16;8.90;;;3.70;;
41964;SDS011;50120;53.250;8.702;2022-10-16T04:34:42;8.35;;;3.83;;
41964;SDS011;50120;53.250;8.702;2022-10-16T04:37:08;7.75;;;4.00;;
41964;SDS011;50120;53.250;8.702;2022-10-16T04:39:33;9.85;;;4.00;;
41964;SDS011;50120;53.250;8.702;2022-10-16T04:41:59;9.80;;;4.30;;
41964;SDS011;50120;53.250;8.702;2022-10-16T04:44:25;10.18;;;4.60;;
41964;SDS011;50120;53.250;8.702;2022-10-16T04:46:51;13.35;;;5.22;;
41964;SDS011;50120;53.250;8.702;2022-10-16T04:49:16;9.85;;;4.70;;
41964;SDS011;50120;53.250;8.702;2022-10-16T04:51:42;11.63;;;4.88;;
41964;SDS011;50120;53.250;8.702;2022-10-16T04:54:08;9.20;;;4.70;;
41964;SDS011;50120;53.250;8.702;2022-10-16T04:56:34;9.93;;;5.25;;
41964;SDS011;50120;53.250;8.702;2022-10-16T04:59:07;15.95;;;6.07;;
41964;SDS011;50120;53.250;8.702;2022-10-16T05:01:33;12.35;;;5.45;;
41964;SDS011;50120;53.250;8.702;2022-10-16T05:03:59;12.32;;;5.70;;
41964;SDS011;50120;53.250;8.702;2022-10-16T05:06:25;11.57;;;5.90;;
41964;SDS011;50120;53.250;8.702;2022-10-16T05:08:51;9.68;;;5.53;;
41964;SDS011;50120;53.250;8.702;2022-10-16T05:11:17;9.48;;;5.97;;
41964;SDS011;50120;53.250;8.702;2022-10-16T05:13:42;11.02;;;5.78;;
41964;SDS011;50120;53.250;8.702;2022-10-16T05:16:08;11.40;;;5.88;;
41964;SDS011;50120;53.250;8.702;2022-10-16T05:18:34;13.07;;;5.93;;
41964;SDS011;50120;53.250;8.702;2022-10-16T05:20:59;16.33;;;5.60;;
41964;SDS011;50120;53.250;8.702;2022-10-16T05:23:25;12.82;;;5.30;;
41964;SDS011;50120;53.250;8.702;2022-10-16T05:25:54;12.32;;;5.85;;
41964;SDS011;50120;53.250;8.702;2022-10-16T05:28:23;13.35;;;6.32;;
41964;SDS011;50120;53.250;8.702;2022-10-16T05:30:50;11.45;;;5.88;;
41964;SDS011;50120;53.250;8.702;2022-10-16T05:33:15;11.60;;;6.15;;
41964;SDS011;50120;53.250;8.702;2022-10-16T05:35:42;10.65;;;6.15;;
41964;SDS011;50120;53.250;8.702;2022-10-16T05:38:08;10.82;;;6.55;;
41964;SDS011;50120;53.250;8.702;2022-10-16T05:40:34;13.18;;;6.35;;
41964;SDS011;50120;53.250;8.702;2022-10-16T05:43:00;15.95;;;6.80;;
41964;SDS011;50120;53.250;8.702;2022-10-16T05:45:26;18.05;;;7.57;;
41964;SDS011;50120;53.250;8.702;2022-10-16T05:47:52;14.07;;;6.90;;
41964;SDS011;50120;53.250;8.702;2022-10-16T05:50:17;13.80;;;7.35;;
41964;SDS011;50120;53.250;8.702;2022-10-16T05:52:43;10.75;;;7.20;;
41964;SDS011;50120;53.250;8.702;2022-10-16T05:55:09;24.88;;;12.52;;
41964;SDS011;50120;53.250;8.702;2022-10-16T05:57:35;29.33;;;15.13;;
41964;SDS011;50120;53.250;8.702;2022-10-16T06:00:01;17.02;;;9.07;;
41964;SDS011;50120;53.250;8.702;2022-10-16T06:02:28;14.80;;;8.90;;
41964;SDS011;50120;53.250;8.702;2022-10-16T06:04:53;18.20;;;8.50;;
41964;SDS011;50120;53.250;8.702;2022-10-16T06:07:19;19.05;;;8.85;;
41964;SDS011;50120;53.250;8.702;2022-10-16T06:09:49;20.13;;;9.27;;
41964;SDS011;50120;53.250;8.702;2022-10-16T06:12:16;15.05;;;8.85;;
41964;SDS011;50120;53.250;8.702;2022-10-16T06:14:42;17.85;;;8.85;;
41964;SDS011;50120;53.250;8.702;2022-10-16T06:17:08;19.80;;;9.50;;
41964;SDS011;50120;53.250;8.702;2022-10-16T06:19:33;16.52;;;9.60;;
41964;SDS011;50120;53.250;8.702;2022-10-16T06:21:59;15.70;;;8.30;;
41964;SDS011;50120;53.250;8.702;2022-10-16T06:24:25;26.10;;;9.60;;
41964;SDS011;50120;53.250;8.702;2022-10-16T06:26:51;16.90;;;8.77;;
41964;SDS011;50120;53.250;8.702;2022-10-16T06:29:17;18.67;;;9.27;;
41964;SDS011;50120;53.250;8.702;2022-10-16T06:31:43;14.85;;;8.27;;
41964;SDS011;50120;53.250;8.702;2022-10-16T06:34:11;16.13;;;8.55;;
41964;SDS011;50120;53.250;8.702;2022-10-16T06:36:37;18.90;;;9.02;;
41964;SDS011;50120;53.250;8.702;2022-10-16T06:39:04;14.95;;;8.60;;
41964;SDS011;50120;53.250;8.702;2022-10-16T06:41:32;13.25;;;7.65;;
41964;SDS011;50120;53.250;8.702;2022-10-16T06:43:58;13.63;;;7.53;;
41964;SDS011;50120;53.250;8.702;2022-10-16T06:46:25;16.73;;;8.50;;
41964;SDS011;50120;53.250;8.702;2022-10-16T06:48:52;13.55;;;8.02;;
41964;SDS011;50120;53.250;8.702;2022-10-16T06:51:19;12.70;;;7.72;;
41964;SDS011;50120;53.250;8.702;2022-10-16T06:53:50;13.23;;;7.68;;
41964;SDS011;50120;53.250;8.702;2022-10-16T06:56:22;13.10;;;8.07;;
41964;SDS011;50120;53.250;8.702;2022-10-16T06:58:50;10.95;;;6.53;;
41964;SDS011;50120;53.250;8.702;2022-10-16T07:01:16;16.90;;;7.53;;
41964;SDS011;50120;53.250;8.702;2022-10-16T07:03:44;16.25;;;8.50;;
41964;SDS011;50120;53.250;8.702;2022-10-16T07:06:11;15.65;;;7.25;;
41964;SDS011;50120;53.250;8.702;2022-10-16T07:08:42;16.40;;;7.50;;
41964;SDS011;50120;53.250;8.702;2022-10-16T07:11:14;12.75;;;7.60;;
41964;SDS011;50120;53.250;8.702;2022-10-16T07:13:42;12.43;;;7.25;;
41964;SDS011;50120;53.250;8.702;2022-10-16T07:16:10;11.90;;;6.75;;
41964;SDS011;50120;53.250;8.702;2022-10-16T07:18:38;12.27;;;7.32;;
41964;SDS011;50120;53.250;8.702;2022-10-16T07:21:06;15.68;;;7.57;;
41964;SDS011;50120;53.250;8.702;2022-10-16T07:23:33;13.90;;;7.28;;
41964;SDS011;50120;53.250;8.702;2022-10-16T07:25:59;14.95;;;7.57;;
41964;SDS011;50120;53.250;8.702;2022-10-16T07:28:25;13.85;;;6.68;;
41964;SDS011;50120;53.250;8.702;2022-10-16T07:30:51;15.95;;;6.93;;
41964;SDS011;50120;53.250;8.702;2022-10-16T07:33:17;10.70;;;6.32;;
41964;SDS011;50120;53.250;8.702;2022-10-16T07:35:52;17.17;;;7.57;;
41964;SDS011;50120;53.250;8.702;2022-10-16T07:38:19;10.82;;;6.95;;
41964;SDS011;50120;53.250;8.702;2022-10-16T07:40:46;11.68;;;7.18;;
41964;SDS011;50120;53.250;8.702;2022-10-16T07:43:12;14.80;;;6.88;;
41964;SDS011;50120;53.250;8.702;2022-10-16T07:45:38;21.83;;;8.20;;
41964;SDS011;50120;53.250;8.702;2022-10-16T07:48:15;15.82;;;8.48;;
41964;SDS011;50120;53.250;8.702;2022-10-16T07:50:41;12.95;;;7.65;;
41964;SDS011;50120;53.250;8.702;2022-10-16T07:53:08;16.65;;;8.65;;
41964;SDS011;50120;53.250;8.702;2022-10-16T07:55:34;11.23;;;6.70;;
41964;SDS011;50120;53.250;8.702;2022-10-16T07:58:00;11.73;;;7.30;;
41964;SDS011;50120;53.250;8.702;2022-10-16T08:00:25;11.45;;;6.07;;
41964;SDS011;50120;53.250;8.702;2022-10-16T08:02:51;12.77;;;5.60;;
41964;SDS011;50120;53.250;8.702;2022-10-16T08:05:17;8.38;;;5.80;;
41964;SDS011;50120;53.250;8.702;2022-10-16T08:07:43;8.80;;;5.22;;
41964;SDS011;50120;53.250;8.702;2022-10-16T08:10:17;8.48;;;5.38;;
41964;SDS011;50120;53.250;8.702;2022-10-16T08:12:43;10.30;;;5.70;;
41964;SDS011;50120;53.250;8.702;2022-10-16T08:15:09;11.15;;;5.65;;
41964;SDS011;50120;53.250;8.702;2022-10-16T08:17:35;10.43;;;5.45;;
41964;SDS011;50120;53.250;8.702;2022-10-16T08:20:01;9.70;;;5.57;;
41964;SDS011;50120;53.250;8.702;2022-10-16T08:22:27;11.07;;;5.20;;
41964;SDS011;50120;53.250;8.702;2022-10-16T08:24:53;10.63;;;4.85;;
41964;SDS011;50120;53.250;8.702;2022-10-16T08:27:19;7.72;;;4.63;;
41964;SDS011;50120;53.250;8.702;2022-10-16T08:29:44;8.55;;;4.53;;
41964;SDS011;50120;53.250;8.702;2022-10-16T08:32:10;9.23;;;4.40;;
41964;SDS011;50120;53.250;8.702;2022-10-16T08:34:36;15.20;;;4.40;;
41964;SDS011;50120;53.250;8.702;2022-10-16T08:37:02;5.85;;;3.60;;
41964;SDS011;50120;53.250;8.702;2022-10-16T08:39:28;7.18;;;4.10;;
41964;SDS011;50120;53.250;8.702;2022-10-16T08:49:59;7.55;;;3.13;;
41964;SDS011;50120;53.250;8.702;2022-10-16T08:52:33;9.95;;;4.43;;
41964;SDS011;50120;53.250;8.702;2022-10-16T08:55:03;6.50;;;3.67;;
41964;SDS011;50120;53.250;8.702;2022-10-16T08:57:29;8.40;;;3.22;;
41964;SDS011;50120;53.250;8.702;2022-10-16T08:59:59;6.88;;;3.55;;
41964;SDS011;50120;53.250;8.702;2022-10-16T09:03:38;6.78;;;2.88;;
41964;SDS011;50120;53.250;8.702;2022-10-16T09:08:30;8.15;;;2.38;;
41964;SDS011;50120;53.250;8.702;2022-10-16T09:11:30;8.57;;;2.75;;
41964;SDS011;50120;53.250;8.702;2022-10-16T09:16:53;6.50;;;1.90;;
41964;SDS011;50120;53.250;8.702;2022-10-16T09:19:33;5.97;;;1.65;;
41964;SDS011;50120;53.250;8.702;2022-10-16T09:22:14;5.70;;;1.50;;
41964;SDS011;50120;53.250;8.702;2022-10-16T09:24:40;7.88;;;1.88;;
41964;SDS011;50120;53.250;8.702;2022-10-16T09:27:13;6.65;;;1.70;;
41964;SDS011;50120;53.250;8.702;2022-10-16T09:29:39;6.45;;;2.10;;
41964;SDS011;50120;53.250;8.702;2022-10-16T09:32:11;6.07;;;1.60;;
41964;SDS011;50120;53.250;8.702;2022-10-16T09:35:00;4.55;;;1.60;;
41964;SDS011;50120;53.250;8.702;2022-10-16T09:37:28;9.73;;;1.70;;
41964;SDS011;50120;53.250;8.702;2022-10-16T09:39:55;6.65;;;1.40;;
41964;SDS011;50120;53.250;8.702;2022-10-16T09:42:30;4.03;;;1.55;;
41964;SDS011;50120;53.250;8.702;2022-10-16T09:44:59;6.55;;;1.50;;
41964;SDS011;50120;53.250;8.702;2022-10-16T09:47:25;10.32;;;1.70;;
41964;SDS011;50120;53.250;8.702;2022-10-16T09:50:00;5.55;;;1.30;;
41964;SDS011;50120;53.250;8.702;2022-10-16T09:52:31;7.25;;;1.50;;
41964;SDS011;50120;53.250;8.702;2022-10-16T09:54:58;6.57;;;1.40;;
41964;SDS011;50120;53.250;8.702;2022-10-16T09:57:26;7.70;;;1.65;;
41964;SDS011;50120;53.250;8.702;2022-10-16T09:59:53;4.68;;;1.20;;
41964;SDS011;50120;53.250;8.702;2022-10-16T10:02:25;5.13;;;1.42;;
41964;SDS011;50120;53.250;8.702;2022-10-16T10:04:53;3.58;;;0.82;;
41964;SDS011;50120;53.250;8.702;2022-10-16T10:07:27;4.05;;;1.20;;
41964;SDS011;50120;53.250;8.702;2022-10-16T10:09:59;5.72;;;1.25;;
41964;SDS011;50120;53.250;8.702;2022-10-16T10:12:27;11.00;;;1.20;;
41964;SDS011;50120;53.250;8.702;2022-10-16T10:14:58;3.30;;;0.93;;
41964;SDS011;50120;53.250;8.702;2022-10-16T10:17:29;5.15;;;1.35;;
41964;SDS011;50120;53.250;8.702;2022-10-16T10:19:56;4.35;;;1.05;;
41964;SDS011;50120;53.250;8.702;2022-10-16T10:22:38;5.22;;;1.30;;
41964;SDS011;50120;53.250;8.702;2022-10-16T10:30:36;6.47;;;1.20;;
41964;SDS011;50120;53.250;8.702;2022-10-16T10:57:43;3.42;;;0.93;;
41964;SDS011;50120;53.250;8.702;2022-10-16T11:00:17;5.65;;;0.90;;
41964;SDS011;50120;53.250;8.702;2022-10-16T11:03:13;2.28;;;0.90;;
41964;SDS011;50120;53.250;8.702;2022-10-16T11:11:09;12.52;;;1.20;;
41964;SDS011;50120;53.250;8.702;2022-10-16T11:14:03;4.03;;;0.80;;
41964;SDS011;50120;53.250;8.702;2022-10-16T11:16:51;4.00;;;1.13;;
41964;SDS011;50120;53.250;8.702;2022-10-16T11:26:57;7.28;;;1.20;;
41964;SDS011;50120;53.250;8.702;2022-10-16T11:29:29;6.60;;;2.40;;
41964;SDS011;50120;53.250;8.702;2022-10-16T11:31:58;4.10;;;1.00;;
41964;SDS011;50120;53.250;8.702;2022-10-16T11:40:28;4.55;;;0.90;;
41964;SDS011;50120;53.250;8.702;2022-10-16T11:42:54;3.60;;;0.80;;
41964;SDS011;50120;53.250;8.702;2022-10-16T11:45:34;1.90;;;0.63;;
41964;SDS011;50120;53.250;8.702;2022-10-16T11:48:26;5.25;;;0.88;;
41964;SDS011;50120;53.250;8.702;2022-10-16T11:51:22;3.72;;;0.90;;
41964;SDS011;50120;53.250;8.702;2022-10-16T11:54:03;4.05;;;0.85;;
41964;SDS011;50120;53.250;8.702;2022-10-16T11:56:30;7.38;;;0.98;;
41964;SDS011;50120;53.250;8.702;2022-10-16T11:59:05;5.00;;;0.90;;
41964;SDS011;50120;53.250;8.702;2022-10-16T12:02:03;4.68;;;0.90;;
41964;SDS011;50120;53.250;8.702;2022-10-16T12:04:41;2.58;;;0.77;;
41964;SDS011;50120;53.250;8.702;2022-10-16T12:09:40;5.90;;;0.93;;
41964;SDS011;50120;53.250;8.702;2022-10-16T12:15:21;5.75;;;1.35;;
41964;SDS011;50120;53.250;8.702;2022-10-16T12:17:49;5.80;;;0.88;;
41964;SDS011;50120;53.250;8.702;2022-10-16T12:22:47;2.47;;;0.88;;
41964;SDS011;50120;53.250;8.702;2022-10-16T12:25:22;4.30;;;1.45;;
41964;SDS011;50120;53.250;8.702;2022-10-16T12:27:58;5.47;;;0.98;;
41964;SDS011;50120;53.250;8.702;2022-10-16T12:30:25;4.07;;;0.80;;
41964;SDS011;50120;53.250;8.702;2022-10-16T12:32:53;4.53;;;1.10;;
41964;SDS011;50120;53.250;8.702;2022-10-16T12:35:29;3.55;;;0.82;;
41964;SDS011;50120;53.250;8.702;2022-10-16T12:38:07;7.15;;;1.35;;
41964;SDS011;50120;53.250;8.702;2022-10-16T12:40:40;2.97;;;0.88;;
41964;SDS011;50120;53.250;8.702;2022-10-16T12:45:45;5.05;;;1.33;;
41964;SDS011;50120;53.250;8.702;2022-10-16T12:48:19;6.30;;;1.10;;
41964;SDS011;50120;53.250;8.702;2022-10-16T12:50:46;5.95;;;1.30;;
41964;SDS011;50120;53.250;8.702;2022-10-16T12:53:19;4.80;;;0.95;;
41964;SDS011;50120;53.250;8.702;2022-10-16T13:01:18;4.95;;;1.08;;
41964;SDS011;50120;53.250;8.702;2022-10-16T13:14:54;6.55;;;1.10;;
41964;SDS011;50120;53.250;8.702;2022-10-16T13:28:30;4.38;;;1.42;;
41964;SDS011;50120;53.250;8.702;2022-10-16T13:31:00;3.63;;;0.80;;
41964;SDS011;50120;53.250;8.702;2022-10-16T13:36:00;7.15;;;1.30;;
41964;SDS011;50120;53.250;8.702;2022-10-16T13:38:27;6.10;;;0.90;;
41964;SDS011;50120;53.250;8.702;2022-10-16T13:40:56;5.53;;;1.17;;
41964;SDS011;50120;53.250;8.702;2022-10-16T13:46:14;7.75;;;2.95;;
41964;SDS011;50120;53.250;8.702;2022-10-16T13:48:40;6.18;;;1.10;;
41964;SDS011;50120;53.250;8.702;2022-10-16T13:53:40;5.93;;;1.13;;
41964;SDS011;50120;53.250;8.702;2022-10-16T13:56:09;9.95;;;1.20;;
41964;SDS011;50120;53.250;8.702;2022-10-16T13:58:40;4.53;;;1.23;;
41964;SDS011;50120;53.250;8.702;2022-10-16T14:03:48;7.40;;;1.02;;
41964;SDS011;50120;53.250;8.702;2022-10-16T14:06:15;4.75;;;0.88;;
41964;SDS011;50120;53.250;8.702;2022-10-16T14:08:48;2.60;;;0.88;;
41964;SDS011;50120;53.250;8.702;2022-10-16T14:11:23;5.28;;;0.95;;
41964;SDS011;50120;53.250;8.702;2022-10-16T14:13:50;4.72;;;0.90;;
41964;SDS011;50120;53.250;8.702;2022-10-16T14:16:17;8.38;;;1.40;;
41964;SDS011;50120;53.250;8.702;2022-10-16T14:18:49;10.02;;;2.53;;
41964;SDS011;50120;53.250;8.702;2022-10-16T14:21:22;5.63;;;0.82;;
41964;SDS011;50120;53.250;8.702;2022-10-16T14:23:48;6.20;;;0.98;;
41964;SDS011;50120;53.250;8.702;2022-10-16T14:26:15;5.60;;;1.17;;
41964;SDS011;50120;53.250;8.702;2022-10-16T14:28:44;3.35;;;0.88;;
41964;SDS011;50120;53.250;8.702;2022-10-16T14:31:30;8.77;;;1.45;;
41964;SDS011;50120;53.250;8.702;2022-10-16T14:33:57;7.38;;;1.30;;
41964;SDS011;50120;53.250;8.702;2022-10-16T14:36:24;4.97;;;1.10;;
41964;SDS011;50120;53.250;8.702;2022-10-16T14:41:29;8.48;;;1.05;;
41964;SDS011;50120;53.250;8.702;2022-10-16T14:43:57;5.80;;;1.30;;
41964;SDS011;50120;53.250;8.702;2022-10-16T14:46:31;10.77;;;1.30;;
41964;SDS011;50120;53.250;8.702;2022-10-16T14:49:04;7.07;;;1.20;;
41964;SDS011;50120;53.250;8.702;2022-10-16T14:51:48;9.25;;;1.40;;
41964;SDS011;50120;53.250;8.702;2022-10-16T14:54:14;7.35;;;1.42;;
41964;SDS011;50120;53.250;8.702;2022-10-16T14:56:50;4.43;;;1.27;;
41964;SDS011;50120;53.250;8.702;2022-10-16T14:59:26;5.47;;;1.30;;
41964;SDS011;50120;53.250;8.702;2022-10-16T15:04:54;10.63;;;1.35;;
41964;SDS011;50120;53.250;8.702;2022-10-16T15:07:20;4.72;;;1.02;;
41964;SDS011;50120;53.250;8.702;2022-10-16T15:09:46;4.70;;;1.15;;
41964;SDS011;50120;53.250;8.702;2022-10-16T15:12:11;7.18;;;1.48;;
41964;SDS011;50120;53.250;8.702;2022-10-16T15:14:37;7.22;;;1.60;;
41964;SDS011;50120;53.250;8.702;2022-10-16T15:17:03;8.90;;;1.42;;
41964;SDS011;50120;53.250;8.702;2022-10-16T15:19:29;6.10;;;1.30;;
41964;SDS011;50120;53.250;8.702;2022-10-16T15:21:55;7.57;;;1.38;;
41964;SDS011;50120;53.250;8.702;2022-10-16T15:24:21;6.88;;;1.23;;
41964;SDS011;50120;53.250;8.702;2022-10-16T15:26:46;6.07;;;1.35;;
41964;SDS011;50120;53.250;8.702;2022-10-16T15:29:12;8.45;;;1.40;;
41964;SDS011;50120;53.250;8.702;2022-10-16T15:31:39;8.98;;;1.10;;
41964;SDS011;50120;53.250;8.702;2022-10-16T15:34:08;6.47;;;1.30;;
41964;SDS011;50120;53.250;8.702;2022-10-16T15:36:35;6.35;;;1.10;;
41964;SDS011;50120;53.250;8.702;2022-10-16T15:39:03;3.17;;;1.10;;
41964;SDS011;50120;53.250;8.702;2022-10-16T15:41:29;9.07;;;1.60;;
41964;SDS011;50120;53.250;8.702;2022-10-16T15:43:55;5.03;;;1.08;;
41964;SDS011;50120;53.250;8.702;2022-10-16T15:46:22;2.85;;;0.95;;
41964;SDS011;50120;53.250;8.702;2022-10-16T15:48:49;10.43;;;1.42;;
41964;SDS011;50120;53.250;8.702;2022-10-16T15:51:16;6.43;;;1.33;;
41964;SDS011;50120;53.250;8.702;2022-10-16T15:53:43;5.97;;;1.20;;
41964;SDS011;50120;53.250;8.702;2022-10-16T15:56:11;8.70;;;1.40;;
41964;SDS011;50120;53.250;8.702;2022-10-16T15:58:38;5.25;;;1.10;;
41964;SDS011;50120;53.250;8.702;2022-10-16T16:01:04;8.73;;;1.40;;
41964;SDS011;50120;53.250;8.702;2022-10-16T16:03:31;7.10;;;1.30;;
41964;SDS011;50120;53.250;8.702;2022-10-16T16:05:57;9.25;;;1.55;;
41964;SDS011;50120;53.250;8.702;2022-10-16T16:08:28;5.60;;;1.30;;
41964;SDS011;50120;53.250;8.702;2022-10-16T16:11:13;6.95;;;1.50;;
41964;SDS011;50120;53.250;8.702;2022-10-16T16:16:09;9.23;;;1.65;;
41964;SDS011;50120;53.250;8.702;2022-10-16T16:18:36;10.65;;;1.77;;
41964;SDS011;50120;53.250;8.702;2022-10-16T16:21:03;7.68;;;2.60;;
41964;SDS011;50120;53.250;8.702;2022-10-16T16:23:29;10.65;;;3.30;;
41964;SDS011;50120;53.250;8.702;2022-10-16T16:26:02;7.70;;;3.35;;
41964;SDS011;50120;53.250;8.702;2022-10-16T16:28:33;12.25;;;3.50;;
41964;SDS011;50120;53.250;8.702;2022-10-16T16:30:59;9.30;;;3.47;;
41964;SDS011;50120;53.250;8.702;2022-10-16T16:33:24;7.93;;;2.75;;
41964;SDS011;50120;53.250;8.702;2022-10-16T16:35:50;10.40;;;2.80;;
41964;SDS011;50120;53.250;8.702;2022-10-16T16:38:21;8.65;;;2.38;;
41964;SDS011;50120;53.250;8.702;2022-10-16T16:40:46;7.07;;;2.55;;
41964;SDS011;50120;53.250;8.702;2022-10-16T16:43:12;7.38;;;2.78;;
41964;SDS011;50120;53.250;8.702;2022-10-16T16:45:38;10.90;;;2.67;;
41964;SDS011;50120;53.250;8.702;2022-10-16T16:48:03;8.52;;;2.78;;
41964;SDS011;50120;53.250;8.702;2022-10-16T16:50:34;8.15;;;3.28;;
41964;SDS011;50120;53.250;8.702;2022-10-16T16:53:00;11.75;;;3.85;;
41964;SDS011;50120;53.250;8.702;2022-10-16T16:55:26;14.40;;;4.50;;
41964;SDS011;50120;53.250;8.702;2022-10-16T16:57:51;13.63;;;4.32;;
41964;SDS011;50120;53.250;8.702;2022-10-16T17:00:17;9.35;;;4.38;;
41964;SDS011;50120;53.250;8.702;2022-10-16T17:02:43;18.80;;;4.90;;
41964;SDS011;50120;53.250;8.702;2022-10-16T17:05:09;12.05;;;5.05;;